createdAt,value
2023-03-25T00:01:19.461Z,9.37
2023-03-25T00:03:51.142Z,9.35
2023-03-25T00:06:20.220Z,9.25
2023-03-25T00:08:48.939Z,9.24
2023-03-25T00:11:16.870Z,9.19
2023-03-25T00:13:45.390Z,9.14
2023-03-25T00:16:13.130Z,9.15
2023-03-25T00:18:41.525Z,9.13
2023-03-25T00:21:12.266Z,9.12
2023-03-25T00:23:42.034Z,9.13
2023-03-25T00:26:11.043Z,9.15
2023-03-25T00:28:39.966Z,9.13
2023-03-25T00:31:16.904Z,9.12
2023-03-25T00:33:45.850Z,8.99
2023-03-25T00:36:15.511Z,9.05
2023-03-25T00:38:45.749Z,8.98
2023-03-25T00:41:26.343Z,8.99
2023-03-25T00:43:57.257Z,8.97
2023-03-25T00:46:29.713Z,9.00
2023-03-25T00:48:59.583Z,8.91
2023-03-25T00:51:31.451Z,8.91
2023-03-25T00:54:03.692Z,8.89
2023-03-25T00:56:31.820Z,8.93
2023-03-25T00:59:00.845Z,8.85
2023-03-25T01:01:29.542Z,8.90
2023-03-25T01:04:01.013Z,8.84
2023-03-25T01:06:33.802Z,8.82
2023-03-25T01:09:05.381Z,8.85
2023-03-25T01:11:35.032Z,8.78
2023-03-25T01:14:05.830Z,8.79
2023-03-25T01:16:34.365Z,8.79
2023-03-25T01:19:02.966Z,8.72
2023-03-25T01:21:34.184Z,8.70
2023-03-25T01:24:03.677Z,8.59
2023-03-25T01:26:31.947Z,8.60
2023-03-25T01:29:00.722Z,8.58
2023-03-25T01:31:30.717Z,8.58
2023-03-25T01:33:59.564Z,8.50
2023-03-25T01:36:31.125Z,8.48
2023-03-25T01:39:00.203Z,8.45
2023-03-25T01:41:39.140Z,8.38
2023-03-25T01:44:20.072Z,8.37
2023-03-25T01:46:49.868Z,8.28
2023-03-25T01:49:26.644Z,8.25
2023-03-25T01:51:58.206Z,8.23
2023-03-25T01:54:27.709Z,8.17
2023-03-25T01:56:56.566Z,8.11
2023-03-25T01:59:27.885Z,8.09
2023-03-25T02:01:57.463Z,8.05
2023-03-25T02:04:35.163Z,8.02
2023-03-25T02:07:03.751Z,7.97
2023-03-25T02:09:32.417Z,7.96
2023-03-25T02:12:00.673Z,7.84
2023-03-25T02:14:34.916Z,7.87
2023-03-25T02:17:23.798Z,7.83
2023-03-25T02:20:34.217Z,7.85
2023-03-25T02:23:22.345Z,7.84
2023-03-25T02:26:30.274Z,7.80
2023-03-25T02:29:24.369Z,7.75
2023-03-25T02:32:16.843Z,7.72
2023-03-25T02:35:04.884Z,7.67
2023-03-25T02:37:52.646Z,7.68
2023-03-25T02:40:44.829Z,7.65
2023-03-25T02:43:25.693Z,7.62
2023-03-25T02:45:57.047Z,7.59
2023-03-25T02:48:36.876Z,7.61
2023-03-25T02:51:12.344Z,7.52
2023-03-25T02:53:43.548Z,7.57
2023-03-25T02:56:15.217Z,7.58
2023-03-25T02:58:44.920Z,7.52
2023-03-25T03:01:15.359Z,7.55
2023-03-25T03:03:44.162Z,7.60
2023-03-25T03:06:17.631Z,7.61
2023-03-25T03:08:52.026Z,7.61
2023-03-25T03:11:23.969Z,7.57
2023-03-25T03:13:53.010Z,7.61
2023-03-25T03:16:40.027Z,7.58
2023-03-25T03:19:41.766Z,7.54
2023-03-25T03:22:53.047Z,7.49
2023-03-25T03:25:46.125Z,7.47
2023-03-25T03:28:22.792Z,7.44
2023-03-25T03:31:08.914Z,7.41
2023-03-25T03:33:55.354Z,7.29
2023-03-25T03:36:31.057Z,7.32
2023-03-25T03:39:07.519Z,7.26
2023-03-25T03:41:39.179Z,7.25
2023-03-25T03:44:09.436Z,7.22
2023-03-25T03:46:42.627Z,7.19
2023-03-25T03:49:14.469Z,7.12
2023-03-25T03:51:49.778Z,7.06
2023-03-25T03:54:47.859Z,6.99
2023-03-25T03:57:21.704Z,6.97
2023-03-25T03:59:55.958Z,6.92
2023-03-25T04:02:44.681Z,6.92
2023-03-25T04:05:16.516Z,6.88
2023-03-25T04:07:57.519Z,6.82
2023-03-25T04:10:52.902Z,6.81
2023-03-25T04:13:22.891Z,6.81
2023-03-25T04:15:50.894Z,6.82
2023-03-25T04:18:23.470Z,6.80
2023-03-25T04:20:51.767Z,6.80
2023-03-25T04:23:20.494Z,6.60
2023-03-25T04:25:50.344Z,6.73
2023-03-25T04:28:19.040Z,6.65
2023-03-25T04:30:57.427Z,6.67
2023-03-25T04:33:25.870Z,6.67
2023-03-25T04:35:54.500Z,6.66
2023-03-25T04:38:22.903Z,6.64
2023-03-25T04:40:50.718Z,6.65
2023-03-25T04:43:19.133Z,6.64
2023-03-25T04:45:55.033Z,6.65
2023-03-25T04:48:26.528Z,6.63
2023-03-25T04:50:56.181Z,6.63
2023-03-25T04:53:24.408Z,6.64
2023-03-25T04:55:52.663Z,6.70
2023-03-25T04:58:21.988Z,6.73
2023-03-25T05:00:52.391Z,6.76
2023-03-25T05:03:27.322Z,6.79
2023-03-25T05:05:55.128Z,6.82
2023-03-25T05:08:23.441Z,6.80
2023-03-25T05:10:51.473Z,6.87
2023-03-25T05:13:20.159Z,6.84
2023-03-25T05:15:48.658Z,6.85
2023-03-25T05:18:17.278Z,6.82
2023-03-25T05:20:47.260Z,6.76
2023-03-25T05:23:18.752Z,6.73
2023-03-25T05:25:48.689Z,6.77
2023-03-25T05:28:18.747Z,6.78
2023-03-25T05:30:48.177Z,6.86
2023-03-25T05:33:18.020Z,6.92
2023-03-25T05:35:46.936Z,6.96
2023-03-25T05:38:19.631Z,6.97
2023-03-25T05:40:49.059Z,6.95
2023-03-25T05:43:22.908Z,6.99
2023-03-25T05:45:51.430Z,7.01
2023-03-25T05:48:20.559Z,6.97
2023-03-25T05:50:48.862Z,6.97
2023-03-25T05:53:17.221Z,7.03
2023-03-25T05:55:45.190Z,7.00
2023-03-25T05:58:13.885Z,7.09
2023-03-25T06:00:41.815Z,7.13
2023-03-25T06:03:10.804Z,7.22
2023-03-25T06:05:41.682Z,7.29
2023-03-25T06:08:10.119Z,7.35
2023-03-25T06:10:39.267Z,7.38
2023-03-25T06:13:07.599Z,7.50
2023-03-25T06:15:39.353Z,7.49
2023-03-25T06:18:07.797Z,7.63
2023-03-25T06:20:36.324Z,7.60
2023-03-25T06:23:05.147Z,7.68
2023-03-25T06:25:33.597Z,7.75
2023-03-25T06:28:03.692Z,7.72
2023-03-25T06:30:31.455Z,7.81
2023-03-25T06:33:03.554Z,7.85
2023-03-25T06:35:31.474Z,7.90
2023-03-25T06:37:59.807Z,7.96
2023-03-25T06:40:39.328Z,8.08
2023-03-25T06:43:08.136Z,8.20
2023-03-25T06:45:35.996Z,8.27
2023-03-25T06:48:21.164Z,8.39
2023-03-25T06:50:48.994Z,8.48
2023-03-25T06:53:17.677Z,8.55
2023-03-25T06:55:45.720Z,8.65
2023-03-25T06:58:14.640Z,8.68
2023-03-25T07:00:42.455Z,8.63
2023-03-25T07:03:11.947Z,8.73
2023-03-25T07:05:42.266Z,8.72
2023-03-25T07:08:11.361Z,8.85
2023-03-25T07:10:39.178Z,8.95
2023-03-25T07:13:07.675Z,9.01
2023-03-25T07:15:36.256Z,8.88
2023-03-25T07:18:05.128Z,9.01
2023-03-25T07:20:33.741Z,9.14
2023-03-25T07:23:02.170Z,9.24
2023-03-25T07:25:30.851Z,9.48
2023-03-25T07:27:59.478Z,9.55
2023-03-25T07:30:27.260Z,9.91
2023-03-25T07:32:56.739Z,10.34
2023-03-25T07:35:24.637Z,10.52
2023-03-25T07:37:53.121Z,11.07
2023-03-25T07:40:21.770Z,11.18
2023-03-25T07:42:50.206Z,11.38
2023-03-25T07:45:44.707Z,11.48
2023-03-25T07:48:16.893Z,11.52
2023-03-25T07:50:46.238Z,11.29
2023-03-25T07:53:14.900Z,11.48
2023-03-25T07:55:43.524Z,11.56
2023-03-25T07:58:13.029Z,11.69
2023-03-25T08:00:40.887Z,11.94
2023-03-25T08:03:12.269Z,12.13
2023-03-25T08:05:47.823Z,12.04
2023-03-25T08:08:16.738Z,11.92
2023-03-25T08:10:46.842Z,12.16
2023-03-25T08:13:15.258Z,12.39
2023-03-25T08:15:43.384Z,12.60
2023-03-25T08:18:12.147Z,12.81
2023-03-25T08:20:40.933Z,13.05
2023-03-25T08:23:10.715Z,13.30
2023-03-25T08:25:40.194Z,13.24
2023-03-25T08:28:08.820Z,13.14
2023-03-25T08:30:38.623Z,13.02
2023-03-25T08:33:07.698Z,13.00
2023-03-25T08:35:36.838Z,13.12
2023-03-25T08:38:08.594Z,13.27
2023-03-25T08:40:36.874Z,13.13
2023-03-25T08:43:06.849Z,13.13
2023-03-25T08:45:36.636Z,12.94
2023-03-25T08:48:05.930Z,12.88
2023-03-25T08:50:33.810Z,12.92
2023-03-25T08:53:02.300Z,13.10
2023-03-25T08:55:30.159Z,13.24
2023-03-25T08:58:02.907Z,13.59
2023-03-25T09:00:32.513Z,13.88
2023-03-25T09:03:01.308Z,14.23
2023-03-25T09:05:29.653Z,14.62
2023-03-25T09:07:58.138Z,14.57
2023-03-25T09:10:26.070Z,14.71
2023-03-25T09:12:54.686Z,14.89
2023-03-25T09:15:23.111Z,14.50
2023-03-25T09:17:51.851Z,14.47
2023-03-25T09:20:20.475Z,14.38
2023-03-25T09:22:48.678Z,14.25
2023-03-25T09:25:17.007Z,14.03
2023-03-25T09:27:45.375Z,13.95
2023-03-25T09:30:14.690Z,14.10
2023-03-25T09:32:43.094Z,14.11
2023-03-25T09:35:11.414Z,14.23
2023-03-25T09:37:39.705Z,14.20
2023-03-25T09:40:08.495Z,14.25
2023-03-25T09:43:02.158Z,14.14
2023-03-25T09:45:36.997Z,14.31
2023-03-25T09:48:25.404Z,14.28
2023-03-25T09:50:54.745Z,14.33
2023-03-25T09:53:44.401Z,14.36
2023-03-25T09:56:22.122Z,14.22
2023-03-25T09:58:53.400Z,14.19
2023-03-25T10:01:58.679Z,14.25
2023-03-25T10:04:29.720Z,14.20
2023-03-25T10:07:22.384Z,14.11
2023-03-25T10:09:57.049Z,14.22
2023-03-25T10:12:31.396Z,14.30
2023-03-25T10:15:24.713Z,14.14
2023-03-25T10:18:03.365Z,14.22
2023-03-25T10:21:02.315Z,14.32
2023-03-25T10:23:47.686Z,14.07
2023-03-25T10:26:23.366Z,14.20
2023-03-25T10:29:04.153Z,14.37
2023-03-25T10:31:37.248Z,14.36
2023-03-25T10:34:09.197Z,14.39
2023-03-25T10:36:43.678Z,14.38
2023-03-25T10:39:19.166Z,14.35
2023-03-25T10:42:18.356Z,14.07
2023-03-25T10:44:47.813Z,14.21
2023-03-25T10:47:24.267Z,14.10
2023-03-25T10:49:53.421Z,13.98
2023-03-25T10:52:21.824Z,14.04
2023-03-25T10:54:52.689Z,14.06
2023-03-25T10:57:26.684Z,14.15
2023-03-25T10:59:57.638Z,14.23
2023-03-25T11:02:29.396Z,14.15
2023-03-25T11:05:00.847Z,14.17
2023-03-25T11:07:45.219Z,14.22
2023-03-25T11:10:27.629Z,14.31
2023-03-25T11:12:58.879Z,14.30
2023-03-25T11:15:35.772Z,14.31
2023-03-25T11:18:38.522Z,14.17
2023-03-25T11:21:12.152Z,14.34
2023-03-25T11:23:48.149Z,14.20
2023-03-25T11:26:22.501Z,14.12
2023-03-25T11:29:15.106Z,14.07
2023-03-25T11:31:43.802Z,14.13
2023-03-25T11:34:25.156Z,14.45
2023-03-25T11:37:02.578Z,14.50
2023-03-25T11:39:37.009Z,14.51
2023-03-25T11:42:30.375Z,14.47
2023-03-25T11:45:00.047Z,14.50
2023-03-25T11:47:38.289Z,14.69
2023-03-25T11:50:07.825Z,14.71
2023-03-25T11:52:44.396Z,14.54
2023-03-25T11:55:33.368Z,14.46
2023-03-25T11:58:02.371Z,14.43
2023-03-25T12:00:47.856Z,14.37
2023-03-25T12:03:23.546Z,14.47
2023-03-25T12:06:19.919Z,14.60
2023-03-25T12:08:52.437Z,14.48
2023-03-25T12:11:26.228Z,14.40
2023-03-25T12:14:19.629Z,14.17
2023-03-25T12:17:00.798Z,14.12
2023-03-25T12:19:47.331Z,14.01
2023-03-25T12:22:34.688Z,13.99
2023-03-25T12:25:27.502Z,14.06
2023-03-25T12:28:01.899Z,14.10
2023-03-25T12:30:52.067Z,14.15
2023-03-25T12:33:40.926Z,14.15
2023-03-25T12:36:24.824Z,14.14
2023-03-25T12:39:18.278Z,14.10
2023-03-25T12:42:20.321Z,14.14
2023-03-25T12:45:04.941Z,14.16
2023-03-25T12:47:59.158Z,14.19
2023-03-25T12:50:44.514Z,14.21
2023-03-25T12:53:33.375Z,14.15
2023-03-25T12:56:09.010Z,14.05
2023-03-25T12:58:52.759Z,14.06
2023-03-25T13:02:06.041Z,13.87
2023-03-25T13:04:52.445Z,13.78
2023-03-25T13:07:28.994Z,13.63
2023-03-25T13:10:16.035Z,13.59
2023-03-25T13:12:57.927Z,13.58
2023-03-25T13:15:31.294Z,13.57
2023-03-25T13:18:07.770Z,13.50
2023-03-25T13:20:40.256Z,13.49
2023-03-25T13:23:14.868Z,13.41
2023-03-25T13:25:49.386Z,13.15
2023-03-25T13:28:23.165Z,12.99
2023-03-25T13:30:51.228Z,12.84
2023-03-25T13:33:45.823Z,12.78
2023-03-25T13:36:16.532Z,12.74
2023-03-25T13:38:51.091Z,12.60
2023-03-25T13:41:22.219Z,12.72
2023-03-25T13:43:55.043Z,12.96
2023-03-25T13:46:47.654Z,13.21
2023-03-25T13:49:24.291Z,13.40
2023-03-25T13:51:52.621Z,13.43
2023-03-25T13:54:41.350Z,13.50
2023-03-25T13:57:40.158Z,13.36
2023-03-25T14:00:25.012Z,13.31
2023-03-25T14:03:18.269Z,13.16
2023-03-25T14:06:09.388Z,13.13
2023-03-25T14:08:52.537Z,13.10
2023-03-25T14:11:49.856Z,13.19
2023-03-25T14:14:22.719Z,13.25
2023-03-25T14:16:59.921Z,13.31
2023-03-25T14:19:38.597Z,13.40
2023-03-25T14:22:28.760Z,13.61
2023-03-25T14:24:57.520Z,13.61
2023-03-25T14:27:32.945Z,13.78
2023-03-25T14:30:15.808Z,13.79
2023-03-25T14:32:45.991Z,13.79
2023-03-25T14:35:38.690Z,13.83
2023-03-25T14:38:12.005Z,13.68
2023-03-25T14:40:50.860Z,13.71
2023-03-25T14:43:49.040Z,13.63
2023-03-25T14:46:22.345Z,13.57
2023-03-25T14:49:30.544Z,13.55
2023-03-25T14:51:59.326Z,13.42
2023-03-25T14:54:33.016Z,13.17
2023-03-25T14:57:11.875Z,13.05
2023-03-25T14:59:44.286Z,12.97
2023-03-25T15:02:24.694Z,12.82
2023-03-25T15:05:15.353Z,12.38
2023-03-25T15:08:02.303Z,12.14
2023-03-25T15:10:36.958Z,11.90
2023-03-25T15:13:13.573Z,11.67
2023-03-25T15:15:49.754Z,11.27
2023-03-25T15:18:43.219Z,11.03
2023-03-25T15:21:11.387Z,10.96
2023-03-25T15:23:48.295Z,10.83
2023-03-25T15:26:47.479Z,10.68
2023-03-25T15:29:17.756Z,10.44
2023-03-25T15:32:13.692Z,10.24
2023-03-25T15:35:03.920Z,10.17
2023-03-25T15:37:55.260Z,10.16
2023-03-25T15:40:34.747Z,10.11
2023-03-25T15:43:33.017Z,10.02
2023-03-25T15:46:07.437Z,10.04
2023-03-25T15:48:54.039Z,9.98
2023-03-25T15:52:02.892Z,9.96
2023-03-25T15:54:37.389Z,9.92
2023-03-25T15:57:29.858Z,9.92
2023-03-25T16:00:13.822Z,9.92
2023-03-25T16:02:49.946Z,9.94
2023-03-25T16:05:19.445Z,9.91
2023-03-25T16:07:47.921Z,9.84
2023-03-25T16:10:32.787Z,9.96
2023-03-25T16:13:04.624Z,9.91
2023-03-25T16:15:36.101Z,9.79
2023-03-25T16:18:06.802Z,9.73
2023-03-25T16:20:37.238Z,9.79
2023-03-25T16:23:08.038Z,9.73
2023-03-25T16:25:38.847Z,9.68
2023-03-25T16:28:19.089Z,9.66
2023-03-25T16:30:53.864Z,9.63
2023-03-25T16:33:33.381Z,9.57
2023-03-25T16:36:04.856Z,9.44
2023-03-25T16:38:33.701Z,9.38
2023-03-25T16:41:09.712Z,9.33
2023-03-25T16:43:38.144Z,9.26
2023-03-25T16:46:08.994Z,9.21
2023-03-25T16:48:40.233Z,9.18
2023-03-25T16:51:17.987Z,9.12
2023-03-25T16:53:50.579Z,9.12
2023-03-25T16:56:19.333Z,9.08
2023-03-25T16:59:14.543Z,9.00
2023-03-25T17:01:45.422Z,9.02
2023-03-25T17:04:44.328Z,9.01
2023-03-25T17:07:15.947Z,8.99
2023-03-25T17:09:45.605Z,8.93
2023-03-25T17:12:20.416Z,8.86
2023-03-25T17:14:50.863Z,8.88
2023-03-25T17:17:28.280Z,8.82
2023-03-25T17:19:56.707Z,8.76
2023-03-25T17:22:36.880Z,8.68
2023-03-25T17:25:25.971Z,8.70
2023-03-25T17:28:01.456Z,8.63
2023-03-25T17:30:29.263Z,8.55
2023-03-25T17:33:10.572Z,8.56
2023-03-25T17:35:39.359Z,8.48
2023-03-25T17:38:09.239Z,8.44
2023-03-25T17:40:37.511Z,8.42
2023-03-25T17:43:05.812Z,8.36
2023-03-25T17:45:33.956Z,8.26
2023-03-25T17:48:02.115Z,8.31
2023-03-25T17:50:33.439Z,8.26
2023-03-25T17:53:02.290Z,8.22
2023-03-25T17:55:30.862Z,8.22
2023-03-25T17:57:59.334Z,8.21
2023-03-25T18:00:28.543Z,8.19
2023-03-25T18:02:57.491Z,8.16
2023-03-25T18:05:26.846Z,8.13
2023-03-25T18:07:58.402Z,8.05
2023-03-25T18:10:26.813Z,8.11
2023-03-25T18:12:59.361Z,8.00
2023-03-25T18:15:30.066Z,8.11
2023-03-25T18:18:00.715Z,8.12
2023-03-25T18:20:32.306Z,8.09
2023-03-25T18:23:01.931Z,8.11
2023-03-25T18:25:34.830Z,8.08
2023-03-25T18:28:06.632Z,8.14
2023-03-25T18:30:52.994Z,8.16
2023-03-25T18:33:32.400Z,8.09
2023-03-25T18:36:02.306Z,8.16
2023-03-25T18:38:32.494Z,8.16
2023-03-25T18:41:00.516Z,8.19
2023-03-25T18:43:29.181Z,8.21
2023-03-25T18:45:57.572Z,8.20
2023-03-25T18:48:26.006Z,8.17
2023-03-25T18:50:57.306Z,8.10
2023-03-25T18:53:28.795Z,8.14
2023-03-25T18:56:00.503Z,8.12
2023-03-25T18:58:32.351Z,8.13
2023-03-25T19:01:03.202Z,8.13
2023-03-25T19:03:39.622Z,8.25
2023-03-25T19:06:11.977Z,8.25
2023-03-25T19:08:41.676Z,8.26
2023-03-25T19:11:20.927Z,8.25
2023-03-25T19:13:54.421Z,8.27
2023-03-25T19:16:22.543Z,8.30
2023-03-25T19:18:50.824Z,8.29
2023-03-25T19:21:21.047Z,8.17
2023-03-25T19:23:50.091Z,8.23
2023-03-25T19:26:18.466Z,8.19
2023-03-25T19:28:46.852Z,8.08
2023-03-25T19:31:17.193Z,8.18
2023-03-25T19:33:46.972Z,8.21
2023-03-25T19:36:20.064Z,8.23
2023-03-25T19:38:49.658Z,8.27
2023-03-25T19:41:19.133Z,8.06
2023-03-25T19:43:49.573Z,8.19
2023-03-25T19:46:19.625Z,8.31
2023-03-25T19:48:52.811Z,8.29
2023-03-25T19:51:26.219Z,8.06
2023-03-25T19:53:56.777Z,8.12
2023-03-25T19:56:26.035Z,8.14
2023-03-25T19:58:55.247Z,8.12
2023-03-25T20:01:24.707Z,8.07
2023-03-25T20:03:53.354Z,8.01
2023-03-25T20:06:21.246Z,8.03
2023-03-25T20:08:49.131Z,7.98
2023-03-25T20:11:17.399Z,7.90
2023-03-25T20:13:45.847Z,7.92
2023-03-25T20:16:13.590Z,7.80
2023-03-25T20:18:42.045Z,7.73
2023-03-25T20:21:10.615Z,7.70
2023-03-25T20:23:38.978Z,7.59
2023-03-25T20:26:06.872Z,7.52
2023-03-25T20:28:36.641Z,7.49
2023-03-25T20:31:20.885Z,7.41
2023-03-25T20:33:50.583Z,7.39
2023-03-25T20:36:20.155Z,7.41
2023-03-25T20:38:57.046Z,7.39
2023-03-25T20:41:26.393Z,7.39
2023-03-25T20:43:54.427Z,7.34
2023-03-25T20:46:25.646Z,7.41
2023-03-25T20:48:54.156Z,7.42
2023-03-25T20:51:22.139Z,7.41
2023-03-25T20:53:53.715Z,7.35
2023-03-25T20:56:21.737Z,7.43
2023-03-25T20:58:50.305Z,7.37
2023-03-25T21:01:18.829Z,7.39
2023-03-25T21:03:49.448Z,7.38
2023-03-25T21:06:24.011Z,7.35
2023-03-25T21:08:54.858Z,7.33
2023-03-25T21:11:23.456Z,7.29
2023-03-25T21:13:52.205Z,7.26
2023-03-25T21:16:21.613Z,7.30
2023-03-25T21:18:50.891Z,7.25
2023-03-25T21:21:20.089Z,7.20
2023-03-25T21:23:49.667Z,7.21
2023-03-25T21:26:17.898Z,7.17
2023-03-25T21:28:46.268Z,7.07
2023-03-25T21:31:19.672Z,7.07
2023-03-25T21:33:53.178Z,7.09
2023-03-25T21:36:24.786Z,7.03
2023-03-25T21:38:58.324Z,7.01
2023-03-25T21:41:27.232Z,6.97
2023-03-25T21:43:55.800Z,6.97
2023-03-25T21:46:24.623Z,6.99
2023-03-25T21:48:54.120Z,7.00
2023-03-25T21:51:22.101Z,6.98
2023-03-25T21:53:50.553Z,6.95
2023-03-25T21:56:20.448Z,6.89
2023-03-25T21:58:49.024Z,6.91
2023-03-25T22:01:23.572Z,6.90
2023-03-25T22:03:55.469Z,6.95
2023-03-25T22:06:32.196Z,6.94
2023-03-25T22:09:05.573Z,6.93
2023-03-25T22:11:35.478Z,6.90
2023-03-25T22:14:06.054Z,6.91
2023-03-25T22:16:34.294Z,6.91
2023-03-25T22:19:02.606Z,6.90
2023-03-25T22:21:34.465Z,6.88
2023-03-25T22:24:03.789Z,6.90
2023-03-25T22:26:32.621Z,6.87
2023-03-25T22:29:02.883Z,6.85
2023-03-25T22:31:39.869Z,6.86
2023-03-25T22:34:15.975Z,6.82
2023-03-25T22:36:50.446Z,6.71
2023-03-25T22:39:20.849Z,6.74
2023-03-25T22:41:49.006Z,6.76
2023-03-25T22:44:18.762Z,6.68
2023-03-25T22:46:48.484Z,6.65
2023-03-25T22:49:17.930Z,6.64
2023-03-25T22:51:46.538Z,6.65
2023-03-25T22:54:14.974Z,6.63
2023-03-25T22:56:44.177Z,6.62
2023-03-25T22:59:13.817Z,6.60
2023-03-25T23:01:42.958Z,6.63
2023-03-25T23:04:11.819Z,6.60
2023-03-25T23:06:41.875Z,6.58
2023-03-25T23:09:11.145Z,6.53
2023-03-25T23:11:39.003Z,6.52
2023-03-25T23:14:10.705Z,6.55
2023-03-25T23:16:39.463Z,6.55
2023-03-25T23:19:10.282Z,6.60
2023-03-25T23:21:38.586Z,6.61
2023-03-25T23:24:07.363Z,6.60
2023-03-25T23:26:40.680Z,6.55
2023-03-25T23:29:10.880Z,6.55
2023-03-25T23:31:41.771Z,6.56
2023-03-25T23:34:13.798Z,6.59
2023-03-25T23:36:43.083Z,6.57
2023-03-25T23:39:17.695Z,6.62
2023-03-25T23:41:45.603Z,6.62
2023-03-25T23:44:13.612Z,6.67
2023-03-25T23:46:42.087Z,6.70
2023-03-25T23:49:11.497Z,6.66
2023-03-25T23:51:42.022Z,6.72
2023-03-25T23:54:13.639Z,6.74
2023-03-25T23:56:42.612Z,6.73
2023-03-25T23:59:12.207Z,6.76
